createdAt,value
2023-02-17T00:02:12.743Z,-13.00
2023-02-17T00:05:16.507Z,-13.08
2023-02-17T00:08:19.929Z,-13.22
2023-02-17T00:11:23.014Z,-13.04
2023-02-17T00:14:26.772Z,-12.85
2023-02-17T00:17:30.877Z,-12.83
2023-02-17T00:20:33.883Z,-12.96
2023-02-17T00:23:37.268Z,-13.00
2023-02-17T00:26:40.378Z,-12.99
2023-02-17T00:29:43.382Z,-13.25
2023-02-17T00:32:47.204Z,-13.04
2023-02-17T00:35:51.212Z,-12.97
2023-02-17T00:38:56.495Z,-12.91
2023-02-17T00:42:00.696Z,-12.64
2023-02-17T00:45:06.090Z,-12.33
2023-02-17T00:48:09.424Z,-12.07
2023-02-17T00:51:17.629Z,-11.98
2023-02-17T00:54:21.363Z,-12.00
2023-02-17T00:57:25.395Z,-11.56
2023-02-17T01:00:29.153Z,-11.19
2023-02-17T01:03:33.249Z,-11.09
2023-02-17T01:06:39.473Z,-10.62
2023-02-17T01:09:43.023Z,-10.45
2023-02-17T01:12:47.223Z,-10.28
2023-02-17T01:15:53.803Z,-10.22
2023-02-17T01:18:57.955Z,-10.15
2023-02-17T01:22:00.987Z,-9.91
2023-02-17T01:25:04.468Z,-9.78
2023-02-17T01:28:11.631Z,-9.61
2023-02-17T01:31:17.165Z,-9.47
2023-02-17T01:34:21.031Z,-9.83
2023-02-17T01:37:24.497Z,-10.11
2023-02-17T01:40:27.451Z,-10.03
2023-02-17T01:43:30.686Z,-9.54
2023-02-17T01:46:35.257Z,-9.28
2023-02-17T01:49:41.536Z,-8.70
2023-02-17T01:52:45.546Z,-8.41
2023-02-17T01:55:49.437Z,-8.27
2023-02-17T01:59:07.660Z,-8.40
2023-02-17T02:02:11.063Z,-8.51
2023-02-17T02:05:19.927Z,-8.36
2023-02-17T02:08:24.272Z,-8.30
2023-02-17T02:11:31.370Z,-7.95
2023-02-17T02:14:34.376Z,-7.42
2023-02-17T02:18:04.850Z,-7.10
2023-02-17T02:21:25.213Z,-7.38
2023-02-17T02:25:01.100Z,-7.45
2023-02-17T02:28:38.922Z,-8.04
2023-02-17T02:32:03.156Z,-8.06
2023-02-17T02:35:30.525Z,-7.31
2023-02-17T02:38:38.046Z,-7.10
2023-02-17T02:41:49.175Z,-7.00
2023-02-17T02:44:52.502Z,-7.26
2023-02-17T02:47:58.343Z,-6.96
2023-02-17T02:51:15.588Z,-6.29
2023-02-17T02:54:43.218Z,-5.59
2023-02-17T02:57:59.387Z,-5.03
2023-02-17T03:01:31.955Z,-3.92
2023-02-17T03:04:40.334Z,-3.58
2023-02-17T03:08:00.034Z,-4.42
2023-02-17T03:11:04.857Z,-4.04
2023-02-17T03:14:16.820Z,-2.71
2023-02-17T03:17:20.352Z,-3.26
2023-02-17T03:20:28.898Z,-3.77
2023-02-17T03:23:33.289Z,-2.65
2023-02-17T03:26:37.431Z,-2.84
2023-02-17T03:29:44.310Z,-2.94
2023-02-17T03:32:47.718Z,-1.99
2023-02-17T03:35:51.332Z,-1.85
2023-02-17T03:38:54.928Z,-2.95
2023-02-17T03:41:58.205Z,-4.55
2023-02-17T03:45:01.868Z,-6.18
2023-02-17T03:48:05.464Z,-6.83
2023-02-17T03:51:27.485Z,-7.39
2023-02-17T03:54:31.263Z,-6.94
2023-02-17T03:57:35.979Z,-7.30
2023-02-17T04:00:39.109Z,-7.11
2023-02-17T04:03:43.002Z,-7.53
2023-02-17T04:06:46.081Z,-7.96
2023-02-17T04:09:49.511Z,-8.08
2023-02-17T04:12:52.513Z,-7.94
2023-02-17T04:15:56.558Z,-7.82
2023-02-17T04:19:00.291Z,-7.81
2023-02-17T04:22:05.283Z,-7.68
2023-02-17T04:25:08.745Z,-7.85
2023-02-17T04:28:12.847Z,-7.52
2023-02-17T04:31:16.574Z,-7.43
2023-02-17T04:34:20.683Z,-7.66
2023-02-17T04:37:24.438Z,-8.14
2023-02-17T04:40:28.201Z,-8.18
2023-02-17T04:43:32.207Z,-7.48
2023-02-17T04:46:35.288Z,-7.39
2023-02-17T04:49:38.618Z,-7.33
2023-02-17T04:52:42.351Z,-7.08
2023-02-17T04:55:50.235Z,-7.19
2023-02-17T04:58:53.938Z,-7.29
2023-02-17T05:01:58.019Z,-7.41
2023-02-17T05:05:01.464Z,-7.41
2023-02-17T05:08:06.062Z,-7.09
2023-02-17T05:11:09.629Z,-6.63
2023-02-17T05:14:13.281Z,-6.53
2023-02-17T05:17:17.236Z,-6.50
2023-02-17T05:20:21.787Z,-6.31
2023-02-17T05:23:25.136Z,-6.17
2023-02-17T05:26:28.599Z,-6.12
2023-02-17T05:29:32.268Z,-6.19
2023-02-17T05:32:35.719Z,-5.79
2023-02-17T05:35:39.269Z,-5.67
2023-02-17T05:38:42.988Z,-5.69
2023-02-17T05:41:45.985Z,-5.30
2023-02-17T05:44:49.359Z,-5.16
2023-02-17T05:47:52.286Z,-4.78
2023-02-17T05:50:55.587Z,-4.21
2023-02-17T05:53:58.525Z,-4.53
2023-02-17T05:57:01.853Z,-4.95
2023-02-17T06:00:06.227Z,-4.86
2023-02-17T06:03:16.071Z,-2.69
2023-02-17T06:06:20.121Z,-0.97
2023-02-17T06:09:24.152Z,-1.73
2023-02-17T06:12:27.042Z,4.10
2023-02-17T06:15:31.411Z,3.73
2023-02-17T06:18:34.479Z,4.88
2023-02-17T06:21:38.094Z,5.55
2023-02-17T06:24:41.321Z,4.88
2023-02-17T06:27:45.127Z,2.05
2023-02-17T06:30:48.228Z,0.47
2023-02-17T06:33:52.249Z,2.62
2023-02-17T06:36:56.285Z,4.39
2023-02-17T06:39:59.635Z,5.55
2023-02-17T06:43:02.628Z,1.57
2023-02-17T06:46:06.396Z,0.08
2023-02-17T06:49:10.323Z,-0.46
2023-02-17T06:52:13.843Z,2.35
2023-02-17T06:55:17.126Z,6.89
2023-02-17T06:58:20.456Z,7.21
2023-02-17T07:01:27.246Z,6.69
2023-02-17T07:04:30.528Z,5.94
2023-02-17T07:07:33.569Z,5.60
2023-02-17T07:10:38.472Z,5.30
2023-02-17T07:13:41.806Z,5.48
2023-02-17T07:16:44.793Z,2.12
2023-02-17T07:19:47.757Z,0.72
2023-02-17T07:22:50.664Z,1.34
2023-02-17T07:25:53.677Z,5.82
2023-02-17T07:28:56.763Z,6.67
2023-02-17T07:32:00.176Z,5.33
2023-02-17T07:35:04.043Z,7.45
2023-02-17T07:38:08.232Z,7.04
2023-02-17T07:41:19.949Z,6.26
2023-02-17T07:44:24.144Z,5.95
2023-02-17T07:47:27.976Z,5.34
2023-02-17T07:50:30.954Z,4.33
2023-02-17T07:53:34.678Z,1.10
2023-02-17T07:56:37.748Z,1.72
2023-02-17T07:59:41.893Z,2.27
2023-02-17T08:02:44.914Z,2.09
2023-02-17T08:05:51.709Z,1.10
2023-02-17T08:09:14.944Z,-0.74
2023-02-17T08:12:38.999Z,-1.04
2023-02-17T08:15:43.137Z,-0.78
2023-02-17T08:18:46.165Z,0.34
2023-02-17T08:21:49.715Z,-0.73
2023-02-17T08:24:52.640Z,-1.29
2023-02-17T08:27:56.467Z,0.24
2023-02-17T08:30:59.610Z,0.55
2023-02-17T08:34:06.347Z,-1.30
2023-02-17T08:37:10.552Z,-2.32
2023-02-17T08:40:15.165Z,-2.04
2023-02-17T08:43:18.559Z,-0.26
2023-02-17T08:46:22.847Z,0.38
2023-02-17T08:49:29.457Z,0.01
2023-02-17T08:52:34.731Z,0.03
2023-02-17T08:55:48.894Z,0.49
2023-02-17T08:58:53.650Z,0.69
2023-02-17T09:01:57.549Z,-0.17
2023-02-17T09:05:01.229Z,-0.57
2023-02-17T09:08:05.318Z,-1.08
2023-02-17T09:11:09.791Z,-1.65
2023-02-17T09:14:13.017Z,-1.73
2023-02-17T09:17:17.118Z,-1.65
2023-02-17T09:20:25.029Z,-2.25
2023-02-17T09:23:28.936Z,-2.69
2023-02-17T09:26:32.258Z,-3.82
2023-02-17T09:29:37.756Z,-5.59
2023-02-17T09:32:44.769Z,-6.06
2023-02-17T09:35:49.920Z,-6.93
2023-02-17T09:38:54.158Z,-7.37
2023-02-17T09:41:58.806Z,-7.69
2023-02-17T09:45:06.680Z,-7.84
2023-02-17T09:48:14.288Z,-8.06
2023-02-17T09:51:28.648Z,-8.20
2023-02-17T09:54:54.609Z,-8.43
2023-02-17T09:58:08.408Z,-8.28
2023-02-17T10:01:20.098Z,-8.24
2023-02-17T10:04:42.194Z,-8.35
2023-02-17T10:07:55.495Z,-8.62
2023-02-17T10:11:23.903Z,-8.64
2023-02-17T10:14:43.763Z,-8.97
2023-02-17T10:18:21.961Z,-9.12
2023-02-17T10:21:32.162Z,-9.36
2023-02-17T10:24:36.160Z,-9.44
2023-02-17T10:28:05.531Z,-9.37
2023-02-17T10:31:16.169Z,-9.49
2023-02-17T10:34:42.732Z,-9.60
2023-02-17T10:38:03.987Z,-9.54
2023-02-17T10:41:13.592Z,-9.58
2023-02-17T10:44:24.051Z,-9.63
2023-02-17T10:47:27.425Z,-9.82
2023-02-17T10:50:31.665Z,-9.71
2023-02-17T10:53:40.249Z,-9.67
2023-02-17T10:56:48.921Z,-9.76
2023-02-17T10:59:53.277Z,-9.76
2023-02-17T11:02:56.503Z,-9.67
2023-02-17T11:06:02.180Z,-9.64
2023-02-17T11:09:17.662Z,-9.79
2023-02-17T11:12:44.967Z,-9.83
2023-02-17T11:15:48.826Z,-9.79
2023-02-17T11:18:54.885Z,-9.99
2023-02-17T11:22:00.299Z,-9.99
2023-02-17T11:25:27.623Z,-10.15
2023-02-17T11:28:31.515Z,-10.16
2023-02-17T11:31:35.118Z,-10.15
2023-02-17T11:34:40.660Z,-10.11
2023-02-17T11:37:44.469Z,-10.13
2023-02-17T11:41:02.598Z,-10.20
2023-02-17T11:44:10.049Z,-10.39
2023-02-17T11:47:22.323Z,-10.41
2023-02-17T11:51:00.957Z,-10.55
2023-02-17T11:54:27.088Z,-10.52
2023-02-17T11:57:36.980Z,-10.55
2023-02-17T12:00:58.573Z,-10.62
2023-02-17T12:04:19.354Z,-10.71
2023-02-17T12:07:55.062Z,-10.66
2023-02-17T12:11:03.490Z,-10.72
2023-02-17T12:14:24.034Z,-10.77
2023-02-17T12:17:52.322Z,-10.84
2023-02-17T12:21:12.705Z,-10.70
2023-02-17T12:24:22.117Z,-10.90
2023-02-17T12:27:46.560Z,-10.87
2023-02-17T12:30:53.798Z,-10.93
2023-02-17T12:34:20.714Z,-10.93
2023-02-17T12:37:29.932Z,-10.92
2023-02-17T12:40:48.494Z,-10.84
2023-02-17T12:44:00.499Z,-10.89
2023-02-17T12:47:18.293Z,-10.89
2023-02-17T12:50:36.432Z,-10.84
2023-02-17T12:53:48.603Z,-10.77
2023-02-17T12:57:04.099Z,-10.77
2023-02-17T13:00:21.934Z,-10.74
2023-02-17T13:03:26.254Z,-10.87
2023-02-17T13:06:43.717Z,-10.87
2023-02-17T13:09:48.863Z,-10.88
2023-02-17T13:13:02.322Z,-10.89
2023-02-17T13:16:14.459Z,-10.89
2023-02-17T13:19:29.473Z,-10.95
2023-02-17T13:22:34.174Z,-11.00
2023-02-17T13:25:37.929Z,-11.05
2023-02-17T13:28:42.716Z,-10.99
2023-02-17T13:31:58.108Z,-10.95
2023-02-17T13:35:31.617Z,-10.95
2023-02-17T13:38:35.527Z,-11.14
2023-02-17T13:41:49.960Z,-11.19
2023-02-17T13:44:53.664Z,-11.27
2023-02-17T13:47:59.604Z,-11.36
2023-02-17T13:51:24.718Z,-11.37
2023-02-17T13:54:27.844Z,-11.26
2023-02-17T13:57:33.926Z,-11.20
2023-02-17T14:00:38.212Z,-11.29
2023-02-17T14:03:41.428Z,-11.33
2023-02-17T14:06:44.912Z,-11.33
2023-02-17T14:09:55.122Z,-11.30
2023-02-17T14:12:59.810Z,-11.23
2023-02-17T14:16:03.612Z,-11.31
2023-02-17T14:19:14.489Z,-11.43
2023-02-17T14:22:36.405Z,-11.49
2023-02-17T14:25:42.744Z,-11.57
2023-02-17T14:28:55.026Z,-11.63
2023-02-17T14:31:58.136Z,-11.71
2023-02-17T14:35:13.368Z,-11.80
2023-02-17T14:38:22.500Z,-11.85
2023-02-17T14:41:26.833Z,-11.97
2023-02-17T14:44:30.588Z,-11.98
2023-02-17T14:47:33.663Z,-12.05
2023-02-17T14:50:42.807Z,-11.97
2023-02-17T14:53:47.257Z,-11.89
2023-02-17T14:57:06.649Z,-11.84
2023-02-17T15:00:15.694Z,-11.82
2023-02-17T15:03:19.519Z,-11.77
2023-02-17T15:06:37.551Z,-11.79
2023-02-17T15:09:42.916Z,-11.72
2023-02-17T15:12:46.567Z,-11.75
2023-02-17T15:15:50.617Z,-11.66
2023-02-17T15:18:54.354Z,-11.62
2023-02-17T15:22:01.829Z,-11.66
2023-02-17T15:25:16.218Z,-11.76
2023-02-17T15:28:20.616Z,-11.78
2023-02-17T15:31:26.449Z,-11.85
2023-02-17T15:34:34.649Z,-11.93
2023-02-17T15:37:38.312Z,-11.94
2023-02-17T15:40:42.785Z,-11.87
2023-02-17T15:43:48.410Z,-12.10
2023-02-17T15:46:55.178Z,-12.04
2023-02-17T15:49:58.681Z,-11.97
2023-02-17T15:53:03.099Z,-12.03
2023-02-17T15:56:31.462Z,-11.95
2023-02-17T15:59:36.220Z,-12.05
2023-02-17T16:02:39.469Z,-11.98
2023-02-17T16:05:43.111Z,-12.13
2023-02-17T16:08:47.250Z,-12.29
2023-02-17T16:11:53.574Z,-12.36
2023-02-17T16:14:58.571Z,-12.28
2023-02-17T16:18:01.633Z,-12.35
2023-02-17T16:21:05.122Z,-12.41
2023-02-17T16:24:08.325Z,-12.48
2023-02-17T16:27:17.017Z,-12.47
2023-02-17T16:30:24.233Z,-12.56
2023-02-17T16:33:28.359Z,-12.58
2023-02-17T16:36:35.180Z,-12.63
2023-02-17T16:39:40.759Z,-12.63
2023-02-17T16:42:43.880Z,-12.60
2023-02-17T16:45:51.764Z,-12.59
2023-02-17T16:48:55.942Z,-12.60
2023-02-17T16:52:05.154Z,-12.55
2023-02-17T16:55:09.012Z,-12.59
2023-02-17T16:58:20.953Z,-12.62
2023-02-17T17:01:24.367Z,-12.76
2023-02-17T17:04:29.082Z,-12.81
2023-02-17T17:07:33.283Z,-12.86
2023-02-17T17:10:40.816Z,-12.84
2023-02-17T17:13:45.876Z,-13.00
2023-02-17T17:16:56.538Z,-13.06
2023-02-17T17:19:59.478Z,-13.17
2023-02-17T17:23:05.510Z,-13.24
2023-02-17T17:26:21.061Z,-13.20
2023-02-17T17:29:24.856Z,-13.19
2023-02-17T17:32:27.949Z,-13.22
2023-02-17T17:35:33.005Z,-13.30
2023-02-17T17:38:36.618Z,-13.37
2023-02-17T17:41:40.303Z,-13.54
2023-02-17T17:44:44.211Z,-13.73
2023-02-17T17:47:47.287Z,-13.85
2023-02-17T17:50:51.013Z,-13.74
2023-02-17T17:53:55.513Z,-13.73
2023-02-17T17:56:59.267Z,-13.75
2023-02-17T18:00:03.308Z,-13.72
2023-02-17T18:03:06.728Z,-13.82
2023-02-17T18:06:19.292Z,-13.77
2023-02-17T18:09:32.274Z,-13.77
2023-02-17T18:12:38.653Z,-13.94
2023-02-17T18:15:42.447Z,-13.94
2023-02-17T18:18:46.090Z,-13.98
2023-02-17T18:21:50.621Z,-13.93
2023-02-17T18:24:54.207Z,-13.95
2023-02-17T18:27:58.022Z,-14.01
2023-02-17T18:31:09.087Z,-13.97
2023-02-17T18:34:12.618Z,-13.89
2023-02-17T18:37:16.840Z,-13.71
2023-02-17T18:40:22.735Z,-13.75
2023-02-17T18:43:25.957Z,-13.96
2023-02-17T18:46:29.660Z,-13.88
2023-02-17T18:49:33.462Z,-13.83
2023-02-17T18:52:38.626Z,-13.76
2023-02-17T18:55:41.558Z,-13.72
2023-02-17T18:58:44.613Z,-13.81
2023-02-17T19:01:48.806Z,-13.97
2023-02-17T19:04:56.348Z,-13.94
2023-02-17T19:08:00.372Z,-14.15
2023-02-17T19:11:04.194Z,-14.18
2023-02-17T19:14:08.278Z,-14.05
2023-02-17T19:17:12.585Z,-13.95
2023-02-17T19:20:17.948Z,-13.99
2023-02-17T19:23:20.885Z,-14.06
2023-02-17T19:26:24.456Z,-13.98
2023-02-17T19:29:27.548Z,-13.98
2023-02-17T19:32:30.933Z,-13.82
2023-02-17T19:35:34.655Z,-13.73
2023-02-17T19:38:38.546Z,-13.83
2023-02-17T19:41:41.866Z,-13.93
2023-02-17T19:44:45.046Z,-13.81
2023-02-17T19:47:48.647Z,-13.70
2023-02-17T19:50:58.450Z,-13.77
2023-02-17T19:54:03.780Z,-13.82
2023-02-17T19:57:07.552Z,-13.85
2023-02-17T20:00:11.152Z,-13.84
2023-02-17T20:03:14.102Z,-13.80
2023-02-17T20:06:23.599Z,-13.66
2023-02-17T20:09:26.687Z,-13.71
2023-02-17T20:12:30.799Z,-13.61
2023-02-17T20:15:34.565Z,-13.49
2023-02-17T20:18:43.248Z,-13.37
2023-02-17T20:21:46.942Z,-13.37
2023-02-17T20:24:51.010Z,-13.74
2023-02-17T20:27:54.522Z,-13.93
2023-02-17T20:30:58.553Z,-13.91
2023-02-17T20:34:04.051Z,-13.87
2023-02-17T20:37:09.531Z,-13.92
2023-02-17T20:40:13.422Z,-13.92
2023-02-17T20:43:17.616Z,-13.77
2023-02-17T20:46:25.823Z,-13.71
2023-02-17T20:49:29.751Z,-13.71
2023-02-17T20:52:33.486Z,-13.77
2023-02-17T20:55:36.818Z,-13.98
2023-02-17T20:58:41.182Z,-13.93
2023-02-17T21:01:45.945Z,-14.05
2023-02-17T21:04:50.385Z,-14.06
2023-02-17T21:07:54.579Z,-13.90
2023-02-17T21:10:57.564Z,-14.04
2023-02-17T21:14:01.810Z,-13.94
2023-02-17T21:17:04.930Z,-14.06
2023-02-17T21:20:11.625Z,-13.95
2023-02-17T21:23:16.352Z,-13.80
2023-02-17T21:26:19.813Z,-13.74
2023-02-17T21:29:23.501Z,-13.74
2023-02-17T21:32:27.394Z,-13.87
2023-02-17T21:35:30.442Z,-13.76
2023-02-17T21:38:33.569Z,-13.88
2023-02-17T21:41:37.742Z,-14.00
2023-02-17T21:44:52.898Z,-13.82
2023-02-17T21:47:57.510Z,-13.72
2023-02-17T21:51:12.597Z,-13.71
2023-02-17T21:54:16.680Z,-13.69
2023-02-17T21:57:19.741Z,-13.75
2023-02-17T22:00:23.533Z,-13.70
2023-02-17T22:03:26.578Z,-13.75
2023-02-17T22:06:36.842Z,-13.77
2023-02-17T22:09:40.653Z,-13.81
2023-02-17T22:12:45.099Z,-13.85
2023-02-17T22:15:57.828Z,-13.83
2023-02-17T22:19:02.433Z,-13.74
2023-02-17T22:22:06.191Z,-13.74
2023-02-17T22:25:09.527Z,-13.82
2023-02-17T22:28:14.492Z,-13.88
2023-02-17T22:31:21.403Z,-14.28
2023-02-17T22:34:26.625Z,-14.08
2023-02-17T22:37:30.323Z,-14.03
2023-02-17T22:40:34.558Z,-14.04
2023-02-17T22:43:39.431Z,-14.03
2023-02-17T22:46:42.519Z,-14.14
2023-02-17T22:49:45.457Z,-14.24
2023-02-17T22:52:49.684Z,-14.23
2023-02-17T22:55:54.818Z,-14.46
2023-02-17T22:59:01.551Z,-14.44
2023-02-17T23:02:04.591Z,-14.42
2023-02-17T23:05:08.328Z,-14.56
2023-02-17T23:08:12.381Z,-14.63
2023-02-17T23:11:17.995Z,-14.61
2023-02-17T23:14:32.043Z,-14.53
2023-02-17T23:17:54.968Z,-14.48
2023-02-17T23:20:59.570Z,-14.38
2023-02-17T23:24:03.794Z,-14.31
2023-02-17T23:27:07.253Z,-14.19
2023-02-17T23:30:12.505Z,-14.11
2023-02-17T23:33:17.745Z,-14.16
2023-02-17T23:36:20.698Z,-14.14
2023-02-17T23:39:23.784Z,-14.14
2023-02-17T23:42:26.913Z,-14.16
2023-02-17T23:45:30.424Z,-14.18
2023-02-17T23:48:33.398Z,-14.06
2023-02-17T23:51:36.769Z,-14.04
2023-02-17T23:54:39.817Z,-13.98
2023-02-17T23:57:42.762Z,-13.92
